sensor_id;sensor_type;location;lat;lon;timestamp;pressure;altitude;pressure_sealevel;temperature
69545;BMP180;56766;52.260;20.746;2023-05-10T00:01:39;101065.00;;;6.88
69545;BMP180;56766;52.260;20.746;2023-05-10T00:04:05;101063.40;;;6.82
69545;BMP180;56766;52.260;20.746;2023-05-10T00:06:31;101064.20;;;6.86
69545;BMP180;56766;52.260;20.746;2023-05-10T00:08:57;101059.20;;;6.90
69545;BMP180;56766;52.260;20.746;2023-05-10T00:11:23;101054.00;;;6.90
69545;BMP180;56766;52.260;20.746;2023-05-10T00:13:49;101053.20;;;6.88
69545;BMP180;56766;52.260;20.746;2023-05-10T00:16:15;101042.60;;;6.90
69545;BMP180;56766;52.260;20.746;2023-05-10T00:18:41;101043.40;;;6.90
69545;BMP180;56766;52.260;20.746;2023-05-10T00:21:07;101042.80;;;6.90
69545;BMP180;56766;52.260;20.746;2023-05-10T00:23:33;101039.40;;;6.90
69545;BMP180;56766;52.260;20.746;2023-05-10T00:25:58;101040.00;;;6.90
69545;BMP180;56766;52.260;20.746;2023-05-10T00:28:24;101033.20;;;6.94
69545;BMP180;56766;52.260;20.746;2023-05-10T00:30:50;101029.40;;;7.00
69545;BMP180;56766;52.260;20.746;2023-05-10T00:33:16;101029.60;;;7.00
69545;BMP180;56766;52.260;20.746;2023-05-10T00:35:42;101028.60;;;7.00
69545;BMP180;56766;52.260;20.746;2023-05-10T00:38:08;101031.40;;;7.00
69545;BMP180;56766;52.260;20.746;2023-05-10T00:40:36;101028.60;;;7.00
69545;BMP180;56766;52.260;20.746;2023-05-10T00:43:03;101028.00;;;7.00
69545;BMP180;56766;52.260;20.746;2023-05-10T00:45:33;101024.40;;;7.00
69545;BMP180;56766;52.260;20.746;2023-05-10T00:48:02;101027.40;;;7.00
69545;BMP180;56766;52.260;20.746;2023-05-10T00:50:31;101030.40;;;7.00
69545;BMP180;56766;52.260;20.746;2023-05-10T00:52:59;101024.00;;;7.00
69545;BMP180;56766;52.260;20.746;2023-05-10T00:55:26;101022.60;;;6.96
69545;BMP180;56766;52.260;20.746;2023-05-10T00:57:53;101021.80;;;6.90
69545;BMP180;56766;52.260;20.746;2023-05-10T01:00:20;101026.80;;;6.90
69545;BMP180;56766;52.260;20.746;2023-05-10T01:02:46;101026.80;;;6.90
69545;BMP180;56766;52.260;20.746;2023-05-10T01:05:13;101028.00;;;6.90
69545;BMP180;56766;52.260;20.746;2023-05-10T01:07:39;101023.00;;;6.90
69545;BMP180;56766;52.260;20.746;2023-05-10T01:10:07;101024.60;;;6.80
69545;BMP180;56766;52.260;20.746;2023-05-10T01:12:39;101024.20;;;6.80
69545;BMP180;56766;52.260;20.746;2023-05-10T01:15:12;101024.20;;;6.80
69545;BMP180;56766;52.260;20.746;2023-05-10T01:17:42;101019.20;;;6.80
69545;BMP180;56766;52.260;20.746;2023-05-10T01:20:11;101021.20;;;6.80
69545;BMP180;56766;52.260;20.746;2023-05-10T01:23:19;101014.80;;;6.74
69545;BMP180;56766;52.260;20.746;2023-05-10T01:35:42;101010.40;;;6.60
69545;BMP180;56766;52.260;20.746;2023-05-10T01:38:25;101011.20;;;6.60
69545;BMP180;56766;52.260;20.746;2023-05-10T01:41:14;101013.40;;;6.60
69545;BMP180;56766;52.260;20.746;2023-05-10T01:44:04;101009.20;;;6.56
69545;BMP180;56766;52.260;20.746;2023-05-10T01:46:37;101007.80;;;6.50
69545;BMP180;56766;52.260;20.746;2023-05-10T01:49:13;101007.60;;;6.50
69545;BMP180;56766;52.260;20.746;2023-05-10T01:51:49;101004.60;;;6.50
69545;BMP180;56766;52.260;20.746;2023-05-10T01:54:20;101002.40;;;6.50
69545;BMP180;56766;52.260;20.746;2023-05-10T01:56:56;101004.80;;;6.46
69545;BMP180;56766;52.260;20.746;2023-05-10T01:59:36;101000.80;;;6.40
69545;BMP180;56766;52.260;20.746;2023-05-10T02:02:09;100997.60;;;6.36
69545;BMP180;56766;52.260;20.746;2023-05-10T02:04:40;100996.60;;;6.30
69545;BMP180;56766;52.260;20.746;2023-05-10T02:07:09;100996.60;;;6.30
69545;BMP180;56766;52.260;20.746;2023-05-10T02:09:38;100998.00;;;6.20
69545;BMP180;56766;52.260;20.746;2023-05-10T02:12:06;100999.40;;;6.20
69545;BMP180;56766;52.260;20.746;2023-05-10T02:14:36;100995.00;;;6.10
69545;BMP180;56766;52.260;20.746;2023-05-10T02:17:07;100996.60;;;6.10
69545;BMP180;56766;52.260;20.746;2023-05-10T02:19:39;100993.60;;;6.06
69545;BMP180;56766;52.260;20.746;2023-05-10T02:22:09;100998.40;;;6.00
69545;BMP180;56766;52.260;20.746;2023-05-10T02:24:38;100990.80;;;6.00
69545;BMP180;56766;52.260;20.746;2023-05-10T02:27:07;100990.40;;;6.00
69545;BMP180;56766;52.260;20.746;2023-05-10T02:29:37;100990.00;;;5.90
69545;BMP180;56766;52.260;20.746;2023-05-10T02:32:05;100982.80;;;5.90
69545;BMP180;56766;52.260;20.746;2023-05-10T02:34:33;100981.60;;;5.88
69545;BMP180;56766;52.260;20.746;2023-05-10T02:37:00;100982.60;;;5.80
69545;BMP180;56766;52.260;20.746;2023-05-10T02:39:31;100987.20;;;5.80
69545;BMP180;56766;52.260;20.746;2023-05-10T02:41:59;100986.20;;;5.80
69545;BMP180;56766;52.260;20.746;2023-05-10T02:44:29;100987.20;;;5.80
69545;BMP180;56766;52.260;20.746;2023-05-10T02:46:57;100987.00;;;5.80
69545;BMP180;56766;52.260;20.746;2023-05-10T02:49:24;100989.60;;;5.80
69545;BMP180;56766;52.260;20.746;2023-05-10T02:52:00;100987.20;;;5.80
69545;BMP180;56766;52.260;20.746;2023-05-10T02:54:33;100988.40;;;5.80
69545;BMP180;56766;52.260;20.746;2023-05-10T02:57:05;100988.80;;;5.78
69545;BMP180;56766;52.260;20.746;2023-05-10T02:59:32;100993.20;;;5.70
69545;BMP180;56766;52.260;20.746;2023-05-10T03:02:00;100993.20;;;5.70
69545;BMP180;56766;52.260;20.746;2023-05-10T03:04:26;100994.60;;;5.70
69545;BMP180;56766;52.260;20.746;2023-05-10T03:06:52;100996.80;;;5.70
69545;BMP180;56766;52.260;20.746;2023-05-10T03:09:19;101001.60;;;5.70
69545;BMP180;56766;52.260;20.746;2023-05-10T03:12:07;101001.00;;;5.74
69545;BMP180;56766;52.260;20.746;2023-05-10T03:15:00;100999.60;;;5.78
69545;BMP180;56766;52.260;20.746;2023-05-10T03:20:42;100997.40;;;5.80
69545;BMP180;56766;52.260;20.746;2023-05-10T03:23:59;100997.20;;;5.84
69545;BMP180;56766;52.260;20.746;2023-05-10T03:26:28;100997.80;;;5.90
69545;BMP180;56766;52.260;20.746;2023-05-10T03:28:55;100994.40;;;5.90
69545;BMP180;56766;52.260;20.746;2023-05-10T03:31:22;100994.20;;;5.96
69545;BMP180;56766;52.260;20.746;2023-05-10T03:33:52;100997.40;;;6.00
69545;BMP180;56766;52.260;20.746;2023-05-10T03:36:19;100993.80;;;6.00
69545;BMP180;56766;52.260;20.746;2023-05-10T03:38:45;101002.00;;;6.00
69545;BMP180;56766;52.260;20.746;2023-05-10T03:41:11;100991.20;;;6.10
69545;BMP180;56766;52.260;20.746;2023-05-10T03:43:37;101001.00;;;6.10
69545;BMP180;56766;52.260;20.746;2023-05-10T03:46:05;101000.20;;;6.20
69545;BMP180;56766;52.260;20.746;2023-05-10T03:48:32;101002.40;;;6.28
69545;BMP180;56766;52.260;20.746;2023-05-10T03:50:58;101002.20;;;6.32
69545;BMP180;56766;52.260;20.746;2023-05-10T03:53:25;100994.80;;;6.40
69545;BMP180;56766;52.260;20.746;2023-05-10T03:55:51;100992.40;;;6.46
69545;BMP180;56766;52.260;20.746;2023-05-10T03:58:16;100990.20;;;6.50
69545;BMP180;56766;52.260;20.746;2023-05-10T04:00:42;100988.60;;;6.54
69545;BMP180;56766;52.260;20.746;2023-05-10T04:03:12;100988.80;;;6.60
69545;BMP180;56766;52.260;20.746;2023-05-10T04:05:38;100989.80;;;6.70
69545;BMP180;56766;52.260;20.746;2023-05-10T04:08:04;100990.80;;;6.80
69545;BMP180;56766;52.260;20.746;2023-05-10T04:10:31;100992.20;;;6.80
69545;BMP180;56766;52.260;20.746;2023-05-10T04:12:57;100992.60;;;6.90
69545;BMP180;56766;52.260;20.746;2023-05-10T04:15:23;100989.00;;;7.00
69545;BMP180;56766;52.260;20.746;2023-05-10T04:17:49;100992.00;;;7.10
69545;BMP180;56766;52.260;20.746;2023-05-10T04:20:16;100991.20;;;7.20
69545;BMP180;56766;52.260;20.746;2023-05-10T04:22:42;100993.80;;;7.26
69545;BMP180;56766;52.260;20.746;2023-05-10T04:25:08;100994.20;;;7.30
69545;BMP180;56766;52.260;20.746;2023-05-10T04:27:34;100999.20;;;7.40
69545;BMP180;56766;52.260;20.746;2023-05-10T04:30:01;101002.20;;;7.50
69545;BMP180;56766;52.260;20.746;2023-05-10T04:32:27;101006.80;;;7.60
69545;BMP180;56766;52.260;20.746;2023-05-10T04:34:53;101001.80;;;7.70
69545;BMP180;56766;52.260;20.746;2023-05-10T04:37:19;101004.00;;;7.90
69545;BMP180;56766;52.260;20.746;2023-05-10T04:39:47;101000.60;;;8.28
69545;BMP180;56766;52.260;20.746;2023-05-10T04:42:13;101001.00;;;8.76
69545;BMP180;56766;52.260;20.746;2023-05-10T04:44:41;101000.20;;;9.26
69545;BMP180;56766;52.260;20.746;2023-05-10T04:47:07;100995.60;;;9.76
69545;BMP180;56766;52.260;20.746;2023-05-10T04:49:32;101002.60;;;10.22
69545;BMP180;56766;52.260;20.746;2023-05-10T04:51:58;101002.80;;;10.60
69545;BMP180;56766;52.260;20.746;2023-05-10T04:54:24;100997.80;;;11.00
69545;BMP180;56766;52.260;20.746;2023-05-10T04:56:50;101000.20;;;11.40
69545;BMP180;56766;52.260;20.746;2023-05-10T04:59:17;101002.20;;;11.70
69545;BMP180;56766;52.260;20.746;2023-05-10T05:01:43;101002.60;;;12.00
69545;BMP180;56766;52.260;20.746;2023-05-10T05:04:09;100999.40;;;12.20
69545;BMP180;56766;52.260;20.746;2023-05-10T05:06:34;100994.20;;;12.42
69545;BMP180;56766;52.260;20.746;2023-05-10T05:09:00;100992.00;;;12.60
69545;BMP180;56766;52.260;20.746;2023-05-10T05:11:26;100991.60;;;12.80
69545;BMP180;56766;52.260;20.746;2023-05-10T05:13:52;100994.20;;;12.80
69545;BMP180;56766;52.260;20.746;2023-05-10T05:16:19;100992.80;;;12.70
69545;BMP180;56766;52.260;20.746;2023-05-10T05:18:44;100992.40;;;12.66
69545;BMP180;56766;52.260;20.746;2023-05-10T05:21:19;100996.20;;;12.62
69545;BMP180;56766;52.260;20.746;2023-05-10T05:23:46;100994.00;;;12.60
69545;BMP180;56766;52.260;20.746;2023-05-10T05:26:12;100989.60;;;12.50
69545;BMP180;56766;52.260;20.746;2023-05-10T05:28:38;100993.40;;;12.50
69545;BMP180;56766;52.260;20.746;2023-05-10T05:31:05;100988.20;;;12.40
69545;BMP180;56766;52.260;20.746;2023-05-10T05:33:31;100987.80;;;12.50
69545;BMP180;56766;52.260;20.746;2023-05-10T05:36:01;100981.00;;;12.50
69545;BMP180;56766;52.260;20.746;2023-05-10T05:38:27;100988.60;;;12.50
69545;BMP180;56766;52.260;20.746;2023-05-10T05:40:53;100986.00;;;12.58
69545;BMP180;56766;52.260;20.746;2023-05-10T05:43:18;100985.60;;;12.58
69545;BMP180;56766;52.260;20.746;2023-05-10T05:45:45;100989.40;;;12.60
69545;BMP180;56766;52.260;20.746;2023-05-10T05:48:11;100992.80;;;12.70
69545;BMP180;56766;52.260;20.746;2023-05-10T05:50:37;100992.20;;;12.80
69545;BMP180;56766;52.260;20.746;2023-05-10T05:53:03;100994.60;;;12.90
69545;BMP180;56766;52.260;20.746;2023-05-10T05:55:28;100990.00;;;12.90
69545;BMP180;56766;52.260;20.746;2023-05-10T05:57:58;100997.20;;;13.00
69545;BMP180;56766;52.260;20.746;2023-05-10T06:00:24;100995.20;;;13.10
69545;BMP180;56766;52.260;20.746;2023-05-10T06:02:50;100995.40;;;13.20
69545;BMP180;56766;52.260;20.746;2023-05-10T06:05:16;100994.00;;;13.30
69545;BMP180;56766;52.260;20.746;2023-05-10T06:07:41;101002.80;;;13.32
69545;BMP180;56766;52.260;20.746;2023-05-10T06:10:09;101001.80;;;13.40
69545;BMP180;56766;52.260;20.746;2023-05-10T06:12:35;101003.20;;;13.44
69545;BMP180;56766;52.260;20.746;2023-05-10T06:15:02;101004.60;;;13.50
69545;BMP180;56766;52.260;20.746;2023-05-10T06:17:28;101005.80;;;13.50
69545;BMP180;56766;52.260;20.746;2023-05-10T06:19:55;101000.00;;;13.52
69545;BMP180;56766;52.260;20.746;2023-05-10T06:22:21;100997.60;;;13.60
69545;BMP180;56766;52.260;20.746;2023-05-10T06:24:49;101005.40;;;13.70
69545;BMP180;56766;52.260;20.746;2023-05-10T06:27:15;100998.80;;;13.70
69545;BMP180;56766;52.260;20.746;2023-05-10T06:29:41;101000.40;;;13.80
69545;BMP180;56766;52.260;20.746;2023-05-10T06:32:07;101003.80;;;13.80
69545;BMP180;56766;52.260;20.746;2023-05-10T06:34:32;101002.00;;;13.90
69545;BMP180;56766;52.260;20.746;2023-05-10T06:36:59;101001.00;;;13.90
69545;BMP180;56766;52.260;20.746;2023-05-10T06:39:25;100996.00;;;14.00
69545;BMP180;56766;52.260;20.746;2023-05-10T06:41:50;100995.20;;;14.00
69545;BMP180;56766;52.260;20.746;2023-05-10T06:44:16;100995.40;;;14.10
69545;BMP180;56766;52.260;20.746;2023-05-10T06:46:42;100998.00;;;14.10
69545;BMP180;56766;52.260;20.746;2023-05-10T06:49:08;100998.60;;;14.18
69545;BMP180;56766;52.260;20.746;2023-05-10T06:51:34;100999.20;;;14.20
69545;BMP180;56766;52.260;20.746;2023-05-10T06:54:00;100998.20;;;14.30
69545;BMP180;56766;52.260;20.746;2023-05-10T06:56:26;100996.20;;;14.40
69545;BMP180;56766;52.260;20.746;2023-05-10T06:58:52;101000.60;;;14.50
69545;BMP180;56766;52.260;20.746;2023-05-10T07:01:18;100995.60;;;14.50
69545;BMP180;56766;52.260;20.746;2023-05-10T07:03:44;100999.20;;;14.60
69545;BMP180;56766;52.260;20.746;2023-05-10T07:06:10;100999.00;;;14.70
69545;BMP180;56766;52.260;20.746;2023-05-10T07:08:36;100998.20;;;14.70
69545;BMP180;56766;52.260;20.746;2023-05-10T07:11:07;100995.00;;;14.80
69545;BMP180;56766;52.260;20.746;2023-05-10T07:13:34;100994.00;;;14.90
69545;BMP180;56766;52.260;20.746;2023-05-10T07:16:01;100991.40;;;15.04
69545;BMP180;56766;52.260;20.746;2023-05-10T07:18:27;100987.60;;;15.16
69545;BMP180;56766;52.260;20.746;2023-05-10T07:20:53;100984.80;;;15.20
69545;BMP180;56766;52.260;20.746;2023-05-10T07:23:19;100982.20;;;15.30
69545;BMP180;56766;52.260;20.746;2023-05-10T07:25:47;100987.40;;;15.30
69545;BMP180;56766;52.260;20.746;2023-05-10T07:28:15;100987.60;;;15.46
69545;BMP180;56766;52.260;20.746;2023-05-10T07:30:42;100986.40;;;15.60
69545;BMP180;56766;52.260;20.746;2023-05-10T07:33:11;100990.20;;;15.64
69545;BMP180;56766;52.260;20.746;2023-05-10T07:35:37;100983.00;;;15.70
69545;BMP180;56766;52.260;20.746;2023-05-10T07:38:03;100986.80;;;15.80
69545;BMP180;56766;52.260;20.746;2023-05-10T07:40:29;100985.80;;;15.92
69545;BMP180;56766;52.260;20.746;2023-05-10T07:42:55;100984.60;;;16.12
69545;BMP180;56766;52.260;20.746;2023-05-10T07:45:22;100984.40;;;16.20
69545;BMP180;56766;52.260;20.746;2023-05-10T07:47:49;100986.60;;;16.20
69545;BMP180;56766;52.260;20.746;2023-05-10T07:50:16;100984.40;;;16.30
69545;BMP180;56766;52.260;20.746;2023-05-10T07:52:41;100984.60;;;16.44
69545;BMP180;56766;52.260;20.746;2023-05-10T07:55:08;100972.80;;;16.50
69545;BMP180;56766;52.260;20.746;2023-05-10T07:57:34;100972.60;;;16.60
69545;BMP180;56766;52.260;20.746;2023-05-10T08:00:01;100974.60;;;16.70
69545;BMP180;56766;52.260;20.746;2023-05-10T08:02:26;100974.80;;;16.80
69545;BMP180;56766;52.260;20.746;2023-05-10T08:04:52;100972.60;;;16.80
69545;BMP180;56766;52.260;20.746;2023-05-10T08:07:18;100976.00;;;16.90
69545;BMP180;56766;52.260;20.746;2023-05-10T08:09:44;100971.00;;;17.00
69545;BMP180;56766;52.260;20.746;2023-05-10T08:12:10;100966.20;;;17.00
69545;BMP180;56766;52.260;20.746;2023-05-10T08:14:36;100974.20;;;17.04
69545;BMP180;56766;52.260;20.746;2023-05-10T08:17:03;100966.60;;;17.10
69545;BMP180;56766;52.260;20.746;2023-05-10T08:19:29;100969.20;;;17.20
69545;BMP180;56766;52.260;20.746;2023-05-10T08:21:55;100968.20;;;17.20
69545;BMP180;56766;52.260;20.746;2023-05-10T08:24:22;100959.80;;;17.20
69545;BMP180;56766;52.260;20.746;2023-05-10T08:26:48;100964.20;;;17.30
69545;BMP180;56766;52.260;20.746;2023-05-10T08:29:15;100962.00;;;17.40
69545;BMP180;56766;52.260;20.746;2023-05-10T08:31:41;100968.20;;;17.42
69545;BMP180;56766;52.260;20.746;2023-05-10T08:34:07;100967.60;;;17.58
69545;BMP180;56766;52.260;20.746;2023-05-10T08:36:33;100970.20;;;17.70
69545;BMP180;56766;52.260;20.746;2023-05-10T08:38:59;100965.40;;;17.80
69545;BMP180;56766;52.260;20.746;2023-05-10T08:41:26;100973.80;;;17.88
69545;BMP180;56766;52.260;20.746;2023-05-10T08:43:54;100967.80;;;17.90
69545;BMP180;56766;52.260;20.746;2023-05-10T08:46:23;100972.20;;;18.00
69545;BMP180;56766;52.260;20.746;2023-05-10T08:48:51;100973.60;;;18.02
69545;BMP180;56766;52.260;20.746;2023-05-10T08:51:22;100972.20;;;18.10
69545;BMP180;56766;52.260;20.746;2023-05-10T08:53:49;100974.60;;;18.20
69545;BMP180;56766;52.260;20.746;2023-05-10T08:56:16;100967.80;;;18.20
69545;BMP180;56766;52.260;20.746;2023-05-10T08:58:43;100965.80;;;18.40
69545;BMP180;56766;52.260;20.746;2023-05-10T09:01:10;100970.20;;;18.50
69545;BMP180;56766;52.260;20.746;2023-05-10T09:03:39;100965.20;;;18.62
69545;BMP180;56766;52.260;20.746;2023-05-10T09:06:05;100963.20;;;18.74
69545;BMP180;56766;52.260;20.746;2023-05-10T09:08:32;100965.60;;;18.80
69545;BMP180;56766;52.260;20.746;2023-05-10T09:11:00;100958.60;;;18.80
69545;BMP180;56766;52.260;20.746;2023-05-10T09:13:28;100963.00;;;18.88
69545;BMP180;56766;52.260;20.746;2023-05-10T09:15:54;100959.20;;;18.90
69545;BMP180;56766;52.260;20.746;2023-05-10T09:18:20;100950.40;;;18.98
69545;BMP180;56766;52.260;20.746;2023-05-10T09:20:46;100940.20;;;19.00
69545;BMP180;56766;52.260;20.746;2023-05-10T09:23:12;100947.00;;;19.00
69545;BMP180;56766;52.260;20.746;2023-05-10T09:25:38;100949.00;;;19.00
69545;BMP180;56766;52.260;20.746;2023-05-10T09:28:07;100944.00;;;19.16
69545;BMP180;56766;52.260;20.746;2023-05-10T09:30:37;100948.20;;;19.30
69545;BMP180;56766;52.260;20.746;2023-05-10T09:33:03;100947.20;;;19.40
69545;BMP180;56766;52.260;20.746;2023-05-10T09:35:32;100941.40;;;19.50
69545;BMP180;56766;52.260;20.746;2023-05-10T09:38:04;100931.60;;;19.50
69545;BMP180;56766;52.260;20.746;2023-05-10T09:40:31;100943.80;;;19.50
69545;BMP180;56766;52.260;20.746;2023-05-10T09:43:01;100940.80;;;19.60
69545;BMP180;56766;52.260;20.746;2023-05-10T09:45:33;100946.80;;;19.70
69545;BMP180;56766;52.260;20.746;2023-05-10T09:48:02;100943.20;;;19.80
69545;BMP180;56766;52.260;20.746;2023-05-10T09:50:30;100946.80;;;19.90
69545;BMP180;56766;52.260;20.746;2023-05-10T09:52:58;100948.00;;;19.90
69545;BMP180;56766;52.260;20.746;2023-05-10T09:55:46;100944.20;;;20.00
69545;BMP180;56766;52.260;20.746;2023-05-10T09:58:13;100941.20;;;20.28
69545;BMP180;56766;52.260;20.746;2023-05-10T10:00:45;100935.00;;;20.30
69545;BMP180;56766;52.260;20.746;2023-05-10T10:03:17;100929.60;;;20.30
69545;BMP180;56766;52.260;20.746;2023-05-10T10:05:45;100930.80;;;20.30
69545;BMP180;56766;52.260;20.746;2023-05-10T10:08:14;100935.40;;;20.30
69545;BMP180;56766;52.260;20.746;2023-05-10T10:10:41;100929.40;;;20.28
69545;BMP180;56766;52.260;20.746;2023-05-10T10:13:09;100931.80;;;20.20
69545;BMP180;56766;52.260;20.746;2023-05-10T10:15:36;100923.60;;;20.10
69545;BMP180;56766;52.260;20.746;2023-05-10T10:18:03;100913.20;;;20.12
69545;BMP180;56766;52.260;20.746;2023-05-10T10:20:31;100913.80;;;20.20
69545;BMP180;56766;52.260;20.746;2023-05-10T10:22:57;100916.00;;;20.16
69545;BMP180;56766;52.260;20.746;2023-05-10T10:25:25;100914.20;;;20.18
69545;BMP180;56766;52.260;20.746;2023-05-10T10:30:41;100904.00;;;20.20
69545;BMP180;56766;52.260;20.746;2023-05-10T10:33:33;100903.60;;;20.20
69545;BMP180;56766;52.260;20.746;2023-05-10T10:36:04;100911.00;;;20.30
69545;BMP180;56766;52.260;20.746;2023-05-10T10:41:30;100908.40;;;20.40
69545;BMP180;56766;52.260;20.746;2023-05-10T10:50:03;100900.20;;;20.80
69545;BMP180;56766;52.260;20.746;2023-05-10T10:52:38;100897.20;;;21.00
69545;BMP180;56766;52.260;20.746;2023-05-10T10:55:11;100895.20;;;20.88
69545;BMP180;56766;52.260;20.746;2023-05-10T11:00:30;100896.60;;;21.00
69545;BMP180;56766;52.260;20.746;2023-05-10T11:03:12;100880.20;;;21.00
69545;BMP180;56766;52.260;20.746;2023-05-10T11:05:58;100894.80;;;20.90
69545;BMP180;56766;52.260;20.746;2023-05-10T11:08:30;100887.20;;;20.80
69545;BMP180;56766;52.260;20.746;2023-05-10T11:13:38;100877.40;;;20.82
69545;BMP180;56766;52.260;20.746;2023-05-10T11:16:24;100881.60;;;20.82
69545;BMP180;56766;52.260;20.746;2023-05-10T11:19:07;100890.20;;;20.76
69545;BMP180;56766;52.260;20.746;2023-05-10T11:21:45;100894.80;;;20.70
69545;BMP180;56766;52.260;20.746;2023-05-10T11:24:19;100892.40;;;20.70
69545;BMP180;56766;52.260;20.746;2023-05-10T11:26:45;100877.40;;;20.76
69545;BMP180;56766;52.260;20.746;2023-05-10T11:29:15;100881.00;;;20.90
69545;BMP180;56766;52.260;20.746;2023-05-10T11:31:43;100881.20;;;20.90
69545;BMP180;56766;52.260;20.746;2023-05-10T11:34:10;100880.40;;;21.00
69545;BMP180;56766;52.260;20.746;2023-05-10T11:36:37;100874.80;;;21.04
69545;BMP180;56766;52.260;20.746;2023-05-10T11:39:04;100876.20;;;21.00
69545;BMP180;56766;52.260;20.746;2023-05-10T11:41:31;100872.60;;;21.00
69545;BMP180;56766;52.260;20.746;2023-05-10T11:43:58;100867.00;;;21.00
69545;BMP180;56766;52.260;20.746;2023-05-10T11:46:27;100873.40;;;21.00
69545;BMP180;56766;52.260;20.746;2023-05-10T11:48:59;100869.60;;;20.90
69545;BMP180;56766;52.260;20.746;2023-05-10T11:51:34;100871.60;;;20.90
69545;BMP180;56766;52.260;20.746;2023-05-10T11:54:08;100874.20;;;21.00
69545;BMP180;56766;52.260;20.746;2023-05-10T11:56:36;100875.20;;;21.00
69545;BMP180;56766;52.260;20.746;2023-05-10T11:59:03;100874.60;;;21.00
69545;BMP180;56766;52.260;20.746;2023-05-10T12:01:31;100866.60;;;21.10
69545;BMP180;56766;52.260;20.746;2023-05-10T12:03:58;100868.80;;;21.10
69545;BMP180;56766;52.260;20.746;2023-05-10T12:06:37;100867.00;;;21.10
69545;BMP180;56766;52.260;20.746;2023-05-10T12:09:07;100873.20;;;21.00
69545;BMP180;56766;52.260;20.746;2023-05-10T12:11:39;100868.80;;;21.00
69545;BMP180;56766;52.260;20.746;2023-05-10T12:14:07;100872.00;;;20.92
69545;BMP180;56766;52.260;20.746;2023-05-10T12:16:33;100862.00;;;20.90
69545;BMP180;56766;52.260;20.746;2023-05-10T12:19:00;100865.20;;;20.80
69545;BMP180;56766;52.260;20.746;2023-05-10T12:21:29;100862.00;;;20.80
69545;BMP180;56766;52.260;20.746;2023-05-10T12:24:03;100868.20;;;20.80
69545;BMP180;56766;52.260;20.746;2023-05-10T12:26:29;100870.40;;;20.70
69545;BMP180;56766;52.260;20.746;2023-05-10T12:29:16;100858.80;;;20.60
69545;BMP180;56766;52.260;20.746;2023-05-10T12:31:59;100865.80;;;20.60
69545;BMP180;56766;52.260;20.746;2023-05-10T12:34:35;100858.40;;;20.70
69545;BMP180;56766;52.260;20.746;2023-05-10T12:37:02;100861.00;;;20.70
69545;BMP180;56766;52.260;20.746;2023-05-10T12:39:40;100861.80;;;20.70
69545;BMP180;56766;52.260;20.746;2023-05-10T12:42:06;100857.80;;;20.70
69545;BMP180;56766;52.260;20.746;2023-05-10T12:44:32;100851.20;;;20.60
69545;BMP180;56766;52.260;20.746;2023-05-10T12:46:58;100851.60;;;20.50
69545;BMP180;56766;52.260;20.746;2023-05-10T12:49:24;100859.40;;;20.52
69545;BMP180;56766;52.260;20.746;2023-05-10T12:51:50;100848.80;;;20.60
69545;BMP180;56766;52.260;20.746;2023-05-10T12:54:16;100859.40;;;20.60
69545;BMP180;56766;52.260;20.746;2023-05-10T12:56:42;100854.80;;;20.50
69545;BMP180;56766;52.260;20.746;2023-05-10T12:59:08;100846.60;;;20.48
69545;BMP180;56766;52.260;20.746;2023-05-10T13:01:34;100846.60;;;20.50
69545;BMP180;56766;52.260;20.746;2023-05-10T13:04:00;100841.00;;;20.50
69545;BMP180;56766;52.260;20.746;2023-05-10T13:06:26;100838.00;;;20.54
69545;BMP180;56766;52.260;20.746;2023-05-10T13:08:52;100837.00;;;20.50
69545;BMP180;56766;52.260;20.746;2023-05-10T13:11:18;100844.60;;;20.40
69545;BMP180;56766;52.260;20.746;2023-05-10T13:13:45;100838.40;;;20.30
69545;BMP180;56766;52.260;20.746;2023-05-10T13:16:11;100838.20;;;20.20
69545;BMP180;56766;52.260;20.746;2023-05-10T13:18:37;100840.40;;;20.20
69545;BMP180;56766;52.260;20.746;2023-05-10T13:21:03;100823.60;;;20.10
69545;BMP180;56766;52.260;20.746;2023-05-10T13:23:31;100836.60;;;20.20
69545;BMP180;56766;52.260;20.746;2023-05-10T13:25:57;100837.40;;;20.20
69545;BMP180;56766;52.260;20.746;2023-05-10T13:28:23;100837.20;;;20.10
69545;BMP180;56766;52.260;20.746;2023-05-10T13:30:49;100829.40;;;20.10
69545;BMP180;56766;52.260;20.746;2023-05-10T13:33:15;100828.80;;;20.00
69545;BMP180;56766;52.260;20.746;2023-05-10T13:35:41;100826.80;;;19.90
69545;BMP180;56766;52.260;20.746;2023-05-10T13:38:07;100822.60;;;19.86
69545;BMP180;56766;52.260;20.746;2023-05-10T13:40:34;100825.60;;;19.90
69545;BMP180;56766;52.260;20.746;2023-05-10T13:43:00;100817.00;;;19.90
69545;BMP180;56766;52.260;20.746;2023-05-10T13:45:26;100826.60;;;19.82
69545;BMP180;56766;52.260;20.746;2023-05-10T13:47:52;100829.60;;;19.80
69545;BMP180;56766;52.260;20.746;2023-05-10T13:50:18;100822.60;;;19.68
69545;BMP180;56766;52.260;20.746;2023-05-10T13:52:44;100823.20;;;19.60
69545;BMP180;56766;52.260;20.746;2023-05-10T13:55:10;100810.40;;;19.50
69545;BMP180;56766;52.260;20.746;2023-05-10T13:57:38;100815.20;;;19.40
69545;BMP180;56766;52.260;20.746;2023-05-10T14:00:05;100818.40;;;19.20
69545;BMP180;56766;52.260;20.746;2023-05-10T14:02:32;100810.40;;;19.10
69545;BMP180;56766;52.260;20.746;2023-05-10T14:04:58;100816.60;;;19.10
69545;BMP180;56766;52.260;20.746;2023-05-10T14:07:25;100810.80;;;19.10
69545;BMP180;56766;52.260;20.746;2023-05-10T14:09:51;100814.40;;;19.20
69545;BMP180;56766;52.260;20.746;2023-05-10T14:12:18;100813.20;;;19.20
69545;BMP180;56766;52.260;20.746;2023-05-10T14:14:44;100804.40;;;19.10
69545;BMP180;56766;52.260;20.746;2023-05-10T14:17:11;100810.00;;;19.10
69545;BMP180;56766;52.260;20.746;2023-05-10T14:19:37;100801.20;;;19.10
69545;BMP180;56766;52.260;20.746;2023-05-10T14:22:03;100801.40;;;19.20
69545;BMP180;56766;52.260;20.746;2023-05-10T14:24:29;100797.40;;;19.30
69545;BMP180;56766;52.260;20.746;2023-05-10T14:26:55;100796.00;;;19.20